UAL2097 KHOU-KMIA
Flight info
| Callsign | UAL2097 |
|---|---|
| Flight time | 1h 45m |
| Altitude | 41000 |
| Route | ELOCO6 LLA LEV Y290 GAWKS FROGZ5 |
| Aircraft | B789/H-SDE1E2E3FGHIJ2J3J4J5M1RWXY/LB1D1 |
Departure
| Time | 2026-05-05 15:34 |
|---|---|
| Airport | William P. Hobby Airport (KHOU) |
Arrival
| Time | 2026-05-05 17:19 |
|---|---|
| Airport | Miami International Airport (KMIA) |
| Time | Latitude | Longitude | Altitude | Speed | Heading |
|---|---|---|---|---|---|
| 2026-05-05 15:14 | 29.65400 | -95.27940 | 50 ft | 0 kts | 339° |
| 2026-05-05 15:21 | 29.65394 | -95.27937 | 49 ft | 4 kts | 339° |
| 2026-05-05 15:21 | 29.65371 | -95.27924 | 49 ft | 4 kts | 309° |
| 2026-05-05 15:21 | 29.65366 | -95.27910 | 49 ft | 0 kts | 249° |
| 2026-05-05 15:25 | 29.65364 | -95.27915 | 50 ft | 3 kts | 249° |
| 2026-05-05 15:26 | 29.65351 | -95.27953 | 50 ft | 7 kts | 249° |
| 2026-05-05 15:26 | 29.65323 | -95.27998 | 53 ft | 8 kts | 227° |
| 2026-05-05 15:26 | 29.65300 | -95.28050 | 51 ft | 7 kts | 262° |
| 2026-05-05 15:26 | 29.65313 | -95.28115 | 49 ft | 10 kts | 291° |
| 2026-05-05 15:27 | 29.65322 | -95.28211 | 52 ft | 13 kts | 255° |
| 2026-05-05 15:27 | 29.65288 | -95.28323 | 52 ft | 17 kts | 242° |
| 2026-05-05 15:27 | 29.65227 | -95.28434 | 51 ft | 16 kts | 259° |
| 2026-05-05 15:27 | 29.65213 | -95.28538 | 53 ft | 7 kts | 235° |
| 2026-05-05 15:28 | 29.65212 | -95.28539 | 53 ft | 0 kts | 232° |
| 2026-05-05 15:29 | 29.65211 | -95.28540 | 49 ft | 1 kts | 232° |
| 2026-05-05 15:29 | 29.65194 | -95.28557 | 49 ft | 5 kts | 211° |
| 2026-05-05 15:29 | 29.65146 | -95.28565 | 52 ft | 9 kts | 177° |
| 2026-05-05 15:30 | 29.65074 | -95.28527 | 54 ft | 14 kts | 136° |
| 2026-05-05 15:30 | 29.65004 | -95.28444 | 49 ft | 14 kts | 134° |
| 2026-05-05 15:30 | 29.64936 | -95.28364 | 49 ft | 14 kts | 134° |
| 2026-05-05 15:30 | 29.64886 | -95.28306 | 50 ft | 0 kts | 134° |
| 2026-05-05 15:33 | 29.64786 | -95.28185 | 51 ft | 58 kts | 134° |
| 2026-05-05 15:33 | 29.64317 | -95.27631 | 49 ft | 134 kts | 134° |
| 2026-05-05 15:33 | 29.63566 | -95.26704 | 378 ft | 165 kts | 129° |
| 2026-05-05 15:34 | 29.62832 | -95.25660 | 1107 ft | 170 kts | 132° |
| 2026-05-05 15:34 | 29.62188 | -95.24547 | 1945 ft | 167 kts | 122° |
| 2026-05-05 15:34 | 29.61823 | -95.23218 | 2481 ft | 184 kts | 107° |
| 2026-05-05 15:34 | 29.61741 | -95.21658 | 2852 ft | 213 kts | 89° |
| 2026-05-05 15:35 | 29.61883 | -95.19885 | 3276 ft | 232 kts | 98° |
| 2026-05-05 15:35 | 29.61559 | -95.17991 | 3688 ft | 254 kts | 110° |
| 2026-05-05 15:35 | 29.61081 | -95.15939 | 4311 ft | 273 kts | 108° |
| 2026-05-05 15:35 | 29.60686 | -95.13796 | 5301 ft | 278 kts | 104° |
| 2026-05-05 15:36 | 29.60336 | -95.11593 | 6139 ft | 288 kts | 103° |
| 2026-05-05 15:36 | 29.59960 | -95.09301 | 7040 ft | 293 kts | 103° |
| 2026-05-05 15:36 | 29.59560 | -95.06986 | 7901 ft | 300 kts | 104° |
| 2026-05-05 15:36 | 29.59148 | -95.04615 | 8819 ft | 305 kts | 102° |
| 2026-05-05 15:37 | 29.58831 | -95.02187 | 9717 ft | 312 kts | 88° |
| 2026-05-05 15:37 | 29.59300 | -94.99766 | 10476 ft | 318 kts | 72° |
| 2026-05-05 15:37 | 29.59968 | -94.97237 | 10742 ft | 345 kts | 70° |
| 2026-05-05 15:37 | 29.60741 | -94.94518 | 11013 ft | 367 kts | 70° |
| 2026-05-05 15:38 | 29.61525 | -94.91712 | 11832 ft | 370 kts | 70° |
| 2026-05-05 15:38 | 29.62297 | -94.88864 | 12588 ft | 376 kts | 70° |
| 2026-05-05 15:38 | 29.63083 | -94.85979 | 13366 ft | 381 kts | 69° |
| 2026-05-05 15:38 | 29.63950 | -94.83125 | 14046 ft | 383 kts | 62° |
| 2026-05-05 15:39 | 29.65026 | -94.80247 | 14665 ft | 391 kts | 64° |
| 2026-05-05 15:39 | 29.66034 | -94.77358 | 15314 ft | 397 kts | 64° |
| 2026-05-05 15:39 | 29.67080 | -94.74394 | 15938 ft | 404 kts | 64° |
| 2026-05-05 15:39 | 29.68170 | -94.71389 | 16583 ft | 409 kts | 64° |
| 2026-05-05 15:40 | 29.69272 | -94.68348 | 17183 ft | 416 kts | 64° |
| 2026-05-05 15:40 | 29.70379 | -94.65248 | 17782 ft | 422 kts | 64° |
| 2026-05-05 15:40 | 29.71503 | -94.62092 | 18365 ft | 428 kts | 64° |
| 2026-05-05 15:40 | 29.72645 | -94.58902 | 18891 ft | 433 kts | 64° |
| 2026-05-05 15:41 | 29.73685 | -94.55630 | 19393 ft | 442 kts | 75° |
| 2026-05-05 15:41 | 29.74084 | -94.52089 | 19927 ft | 450 kts | 89° |
| 2026-05-05 15:41 | 29.73824 | -94.48526 | 20391 ft | 456 kts | 97° |
| 2026-05-05 15:41 | 29.73397 | -94.44890 | 20876 ft | 461 kts | 97° |
| 2026-05-05 15:42 | 29.72928 | -94.41220 | 21359 ft | 466 kts | 98° |
| 2026-05-05 15:42 | 29.72467 | -94.37509 | 21826 ft | 471 kts | 97° |
| 2026-05-05 15:42 | 29.72022 | -94.33750 | 22298 ft | 476 kts | 97° |
| 2026-05-05 15:42 | 29.71593 | -94.29961 | 22754 ft | 481 kts | 96° |
| 2026-05-05 15:43 | 29.71182 | -94.26127 | 23221 ft | 486 kts | 96° |
| 2026-05-05 15:43 | 29.70757 | -94.22252 | 23645 ft | 490 kts | 96° |
| 2026-05-05 15:43 | 29.70311 | -94.18345 | 24046 ft | 493 kts | 96° |
| 2026-05-05 15:43 | 29.69865 | -94.14423 | 24421 ft | 496 kts | 96° |
| 2026-05-05 15:44 | 29.69425 | -94.10469 | 24818 ft | 499 kts | 96° |
| 2026-05-05 15:44 | 29.68981 | -94.06498 | 25227 ft | 502 kts | 96° |
| 2026-05-05 15:44 | 29.68653 | -94.02505 | 25570 ft | 502 kts | 87° |
| 2026-05-05 15:44 | 29.68631 | -93.98480 | 25908 ft | 505 kts | 88° |
| 2026-05-05 15:45 | 29.68599 | -93.94427 | 26303 ft | 507 kts | 88° |
| 2026-05-05 15:45 | 29.68561 | -93.90358 | 26681 ft | 510 kts | 88° |
| 2026-05-05 15:45 | 29.68522 | -93.86260 | 27050 ft | 513 kts | 88° |
| 2026-05-05 15:45 | 29.68485 | -93.82143 | 27411 ft | 516 kts | 88° |
| 2026-05-05 15:46 | 29.68447 | -93.78060 | 27766 ft | 519 kts | 88° |
| 2026-05-05 15:46 | 29.68405 | -93.73894 | 28112 ft | 522 kts | 88° |
| 2026-05-05 15:46 | 29.68361 | -93.69714 | 28455 ft | 525 kts | 88° |
| 2026-05-05 15:46 | 29.68317 | -93.65505 | 28790 ft | 527 kts | 88° |
| 2026-05-05 15:47 | 29.68271 | -93.61275 | 29131 ft | 530 kts | 88° |
| 2026-05-05 15:47 | 29.68239 | -93.58401 | 29357 ft | 532 kts | 88° |
| 2026-05-05 15:47 | 29.68174 | -93.52746 | 29783 ft | 536 kts | 88° |
| 2026-05-05 15:47 | 29.68122 | -93.48452 | 30093 ft | 538 kts | 88° |
| 2026-05-05 15:48 | 29.68070 | -93.44138 | 30368 ft | 540 kts | 88° |
| 2026-05-05 15:48 | 29.68016 | -93.39800 | 30644 ft | 542 kts | 88° |
| 2026-05-05 15:48 | 29.67960 | -93.35459 | 30925 ft | 544 kts | 88° |
| 2026-05-05 15:48 | 29.67903 | -93.31099 | 31191 ft | 546 kts | 88° |
| 2026-05-05 15:49 | 29.67844 | -93.26721 | 31455 ft | 548 kts | 88° |
| 2026-05-05 15:49 | 29.67783 | -93.22336 | 31700 ft | 550 kts | 88° |
| 2026-05-05 15:49 | 29.67721 | -93.17926 | 31953 ft | 552 kts | 88° |
| 2026-05-05 15:49 | 29.67657 | -93.13563 | 32201 ft | 554 kts | 88° |
| 2026-05-05 15:50 | 29.67592 | -93.09126 | 32429 ft | 556 kts | 88° |
| 2026-05-05 15:50 | 29.67524 | -93.04680 | 32668 ft | 557 kts | 88° |
| 2026-05-05 15:50 | 29.67455 | -93.00218 | 32954 ft | 558 kts | 88° |
| 2026-05-05 15:50 | 29.67385 | -92.95757 | 33181 ft | 560 kts | 88° |
| 2026-05-05 15:51 | 29.67313 | -92.91274 | 33415 ft | 561 kts | 88° |
| 2026-05-05 15:51 | 29.67239 | -92.86785 | 33637 ft | 563 kts | 88° |
| 2026-05-05 15:51 | 29.67163 | -92.82280 | 33850 ft | 564 kts | 88° |
| 2026-05-05 15:51 | 29.67085 | -92.77763 | 34047 ft | 565 kts | 88° |
| 2026-05-05 15:52 | 29.67006 | -92.73241 | 34232 ft | 567 kts | 88° |
| 2026-05-05 15:52 | 29.66925 | -92.68711 | 34477 ft | 566 kts | 88° |
| 2026-05-05 15:52 | 29.66842 | -92.64190 | 34762 ft | 564 kts | 88° |
| 2026-05-05 15:52 | 29.66759 | -92.59685 | 35047 ft | 563 kts | 89° |
| 2026-05-05 15:53 | 29.66674 | -92.55174 | 35268 ft | 564 kts | 89° |
| 2026-05-05 15:53 | 29.66588 | -92.50673 | 35494 ft | 563 kts | 89° |
| 2026-05-05 15:53 | 29.66500 | -92.46162 | 35716 ft | 563 kts | 89° |
| 2026-05-05 15:53 | 29.66410 | -92.41660 | 35935 ft | 563 kts | 89° |
| 2026-05-05 15:54 | 29.66183 | -92.37151 | 36126 ft | 565 kts | 98° |
| 2026-05-05 15:54 | 29.65397 | -92.32795 | 36304 ft | 565 kts | 103° |
| 2026-05-05 15:54 | 29.64486 | -92.28391 | 36490 ft | 566 kts | 103° |
| 2026-05-05 15:54 | 29.63561 | -92.24000 | 36747 ft | 564 kts | 103° |
| 2026-05-05 15:55 | 29.62652 | -92.19610 | 36953 ft | 564 kts | 103° |
| 2026-05-05 15:55 | 29.61754 | -92.15216 | 37161 ft | 564 kts | 103° |
| 2026-05-05 15:55 | 29.60843 | -92.10815 | 37368 ft | 564 kts | 103° |
| 2026-05-05 15:55 | 29.59926 | -92.06437 | 37559 ft | 564 kts | 103° |
| 2026-05-05 15:56 | 29.59011 | -92.02061 | 37752 ft | 563 kts | 103° |
| 2026-05-05 15:56 | 29.58100 | -91.97671 | 37959 ft | 563 kts | 103° |
| 2026-05-05 15:56 | 29.57188 | -91.93297 | 38145 ft | 563 kts | 103° |
| 2026-05-05 15:56 | 29.56283 | -91.88985 | 38327 ft | 563 kts | 103° |
| 2026-05-05 15:57 | 29.55770 | -91.86545 | 38372 ft | 564 kts | 104° |
| 2026-05-05 15:57 | 29.54518 | -91.80582 | 38619 ft | 564 kts | 104° |
| 2026-05-05 15:57 | 29.53598 | -91.76201 | 38775 ft | 564 kts | 104° |
| 2026-05-05 15:58 | 29.52673 | -91.71816 | 38879 ft | 564 kts | 103° |
| 2026-05-05 15:58 | 29.51753 | -91.67467 | 39229 ft | 558 kts | 103° |
| 2026-05-05 15:58 | 29.50838 | -91.63139 | 39387 ft | 558 kts | 103° |
| 2026-05-05 15:58 | 29.49922 | -91.58810 | 39498 ft | 558 kts | 103° |
| 2026-05-05 15:59 | 29.49002 | -91.54479 | 39622 ft | 558 kts | 103° |
| 2026-05-05 15:59 | 29.47153 | -91.45791 | 39697 ft | 563 kts | 103° |
| 2026-05-05 15:59 | 29.46223 | -91.41430 | 39815 ft | 563 kts | 103° |
| 2026-05-05 16:00 | 29.45290 | -91.37066 | 39950 ft | 562 kts | 103° |
| 2026-05-05 16:00 | 29.44368 | -91.32763 | 40072 ft | 562 kts | 103° |
| 2026-05-05 16:00 | 29.43423 | -91.28354 | 40202 ft | 562 kts | 103° |
| 2026-05-05 16:01 | 29.41877 | -91.21161 | 40419 ft | 561 kts | 103° |
| 2026-05-05 16:01 | 29.40942 | -91.16821 | 40542 ft | 561 kts | 103° |
| 2026-05-05 16:01 | 29.40004 | -91.12475 | 40641 ft | 562 kts | 103° |
| 2026-05-05 16:02 | 29.38543 | -91.05718 | 40731 ft | 564 kts | 103° |
| 2026-05-05 16:02 | 29.37074 | -90.98941 | 40915 ft | 563 kts | 103° |
| 2026-05-05 16:03 | 29.35178 | -90.90224 | 40997 ft | 565 kts | 103° |
| 2026-05-05 16:03 | 29.33305 | -90.81637 | 40991 ft | 563 kts | 103° |
| 2026-05-05 16:04 | 29.31403 | -90.72951 | 40997 ft | 561 kts | 103° |
| 2026-05-05 16:04 | 29.29497 | -90.64270 | 40999 ft | 562 kts | 103° |
| 2026-05-05 16:05 | 29.27582 | -90.55584 | 41007 ft | 563 kts | 103° |
| 2026-05-05 16:05 | 29.25656 | -90.46871 | 41015 ft | 564 kts | 103° |
| 2026-05-05 16:06 | 29.23738 | -90.38225 | 41020 ft | 562 kts | 103° |
| 2026-05-05 16:06 | 29.22039 | -90.30589 | 41021 ft | 558 kts | 103° |
| 2026-05-05 16:07 | 29.20140 | -90.22080 | 41015 ft | 557 kts | 103° |
| 2026-05-05 16:07 | 29.18214 | -90.13481 | 41013 ft | 558 kts | 103° |
| 2026-05-05 16:07 | 29.17091 | -90.09224 | 41033 ft | 558 kts | 114° |
| 2026-05-05 16:08 | 29.15581 | -90.05138 | 41015 ft | 559 kts | 114° |
| 2026-05-05 16:08 | 29.12491 | -89.96956 | 41029 ft | 561 kts | 113° |
| 2026-05-05 16:09 | 29.09436 | -89.88737 | 41035 ft | 562 kts | 113° |
| 2026-05-05 16:09 | 29.06361 | -89.80576 | 41033 ft | 562 kts | 113° |
| 2026-05-05 16:10 | 29.03282 | -89.72370 | 41033 ft | 561 kts | 113° |
| 2026-05-05 16:10 | 29.00196 | -89.64190 | 41037 ft | 560 kts | 114° |
| 2026-05-05 16:11 | 28.97118 | -89.56035 | 41035 ft | 559 kts | 113° |
| 2026-05-05 16:12 | 28.91485 | -89.41169 | 41026 ft | 556 kts | 114° |
| 2026-05-05 16:13 | 28.83788 | -89.20948 | 41048 ft | 558 kts | 114° |
| 2026-05-05 16:13 | 28.80684 | -89.12822 | 41045 ft | 560 kts | 114° |
| 2026-05-05 16:14 | 28.74446 | -88.96549 | 41049 ft | 559 kts | 114° |
| 2026-05-05 16:15 | 28.68217 | -88.80369 | 41050 ft | 559 kts | 114° |
| 2026-05-05 16:16 | 28.61956 | -88.64174 | 41058 ft | 556 kts | 114° |
| 2026-05-05 16:17 | 28.57275 | -88.52111 | 41058 ft | 556 kts | 114° |
| 2026-05-05 16:18 | 28.52580 | -88.40051 | 41045 ft | 556 kts | 114° |
| 2026-05-05 16:19 | 28.47873 | -88.27999 | 41051 ft | 556 kts | 114° |
| 2026-05-05 16:19 | 28.43167 | -88.15986 | 41068 ft | 557 kts | 114° |
| 2026-05-05 16:20 | 28.37158 | -87.99767 | 41053 ft | 556 kts | 107° |
| 2026-05-05 16:22 | 28.31170 | -87.78971 | 41066 ft | 554 kts | 107° |
| 2026-05-05 16:23 | 28.26354 | -87.62368 | 41069 ft | 554 kts | 107° |
| 2026-05-05 16:23 | 28.22726 | -87.49916 | 41068 ft | 554 kts | 107° |
| 2026-05-05 16:24 | 28.21560 | -87.45932 | 41071 ft | 555 kts | 107° |
| 2026-05-05 16:25 | 28.17927 | -87.33529 | 41071 ft | 555 kts | 107° |
| 2026-05-05 16:25 | 28.14269 | -87.21091 | 41068 ft | 554 kts | 107° |
| 2026-05-05 16:26 | 28.09388 | -87.04571 | 41061 ft | 552 kts | 107° |
| 2026-05-05 16:27 | 28.06940 | -86.96315 | 41059 ft | 553 kts | 107° |
| 2026-05-05 16:27 | 28.04481 | -86.88041 | 41064 ft | 556 kts | 107° |
| 2026-05-05 16:28 | 28.02026 | -86.79802 | 41063 ft | 555 kts | 107° |
| 2026-05-05 16:28 | 27.99577 | -86.71522 | 41063 ft | 553 kts | 105° |
| 2026-05-05 16:29 | 27.97224 | -86.63247 | 41059 ft | 552 kts | 106° |
| 2026-05-05 16:29 | 27.94808 | -86.55002 | 41060 ft | 552 kts | 105° |
| 2026-05-05 16:30 | 27.92417 | -86.46722 | 41066 ft | 555 kts | 106° |
| 2026-05-05 16:30 | 27.89994 | -86.38433 | 41064 ft | 556 kts | 106° |
| 2026-05-05 16:31 | 27.87575 | -86.30138 | 41065 ft | 556 kts | 106° |
| 2026-05-05 16:31 | 27.85141 | -86.21833 | 41061 ft | 556 kts | 106° |
| 2026-05-05 16:32 | 27.82709 | -86.13544 | 41065 ft | 555 kts | 106° |
| 2026-05-05 16:32 | 27.80273 | -86.05267 | 41056 ft | 554 kts | 106° |
| 2026-05-05 16:33 | 27.77849 | -85.97053 | 41054 ft | 554 kts | 106° |
| 2026-05-05 16:33 | 27.75409 | -85.88800 | 41058 ft | 554 kts | 106° |
| 2026-05-05 16:34 | 27.72967 | -85.80563 | 41055 ft | 553 kts | 106° |
| 2026-05-05 16:34 | 27.70519 | -85.72324 | 41065 ft | 553 kts | 106° |
| 2026-05-05 16:35 | 27.68069 | -85.64101 | 41058 ft | 553 kts | 106° |
| 2026-05-05 16:35 | 27.66454 | -85.58691 | 41060 ft | 554 kts | 106° |
| 2026-05-05 16:36 | 27.64006 | -85.50507 | 41066 ft | 554 kts | 106° |
| 2026-05-05 16:36 | 27.62154 | -85.44328 | 41063 ft | 554 kts | 106° |
| 2026-05-05 16:37 | 27.59697 | -85.36145 | 41060 ft | 554 kts | 105° |
| 2026-05-05 16:37 | 27.58011 | -85.27726 | 41070 ft | 550 kts | 97° |
| 2026-05-05 16:38 | 27.56554 | -85.19251 | 41080 ft | 551 kts | 97° |
| 2026-05-05 16:38 | 27.55063 | -85.10775 | 41077 ft | 551 kts | 97° |
| 2026-05-05 16:39 | 27.53584 | -85.02291 | 41083 ft | 552 kts | 97° |
| 2026-05-05 16:39 | 27.52096 | -84.93861 | 41071 ft | 550 kts | 97° |
| 2026-05-05 16:40 | 27.50608 | -84.85415 | 41071 ft | 550 kts | 97° |
| 2026-05-05 16:40 | 27.49111 | -84.76972 | 41067 ft | 549 kts | 97° |
| 2026-05-05 16:41 | 27.47612 | -84.68540 | 41070 ft | 548 kts | 97° |
| 2026-05-05 16:41 | 27.46111 | -84.60134 | 41063 ft | 546 kts | 97° |
| 2026-05-05 16:42 | 27.44607 | -84.51735 | 41067 ft | 548 kts | 97° |
| 2026-05-05 16:42 | 27.43101 | -84.43362 | 41064 ft | 549 kts | 97° |
| 2026-05-05 16:43 | 27.41577 | -84.34913 | 41084 ft | 551 kts | 97° |
| 2026-05-05 16:43 | 27.40047 | -84.26473 | 41069 ft | 551 kts | 97° |
| 2026-05-05 16:44 | 27.38514 | -84.18036 | 41073 ft | 549 kts | 97° |
| 2026-05-05 16:44 | 27.36977 | -84.09618 | 41069 ft | 547 kts | 97° |
| 2026-05-05 16:45 | 27.35454 | -84.01293 | 41063 ft | 546 kts | 97° |
| 2026-05-05 16:45 | 27.33914 | -83.92910 | 41064 ft | 547 kts | 97° |
| 2026-05-05 16:46 | 27.32369 | -83.84537 | 41076 ft | 548 kts | 97° |
| 2026-05-05 16:46 | 27.30814 | -83.76132 | 41083 ft | 549 kts | 97° |
| 2026-05-05 16:47 | 27.29251 | -83.67713 | 41076 ft | 550 kts | 97° |
| 2026-05-05 16:47 | 27.27683 | -83.59299 | 41087 ft | 549 kts | 97° |
| 2026-05-05 16:48 | 27.26123 | -83.50956 | 41076 ft | 547 kts | 97° |
| 2026-05-05 16:48 | 27.24558 | -83.42615 | 41075 ft | 545 kts | 97° |
| 2026-05-05 16:49 | 27.22987 | -83.34270 | 41067 ft | 546 kts | 97° |
| 2026-05-05 16:49 | 27.21410 | -83.25921 | 41077 ft | 547 kts | 97° |
| 2026-05-05 16:50 | 27.19822 | -83.17545 | 41076 ft | 547 kts | 97° |
| 2026-05-05 16:50 | 27.18238 | -83.09217 | 41080 ft | 548 kts | 97° |
| 2026-05-05 16:51 | 27.16636 | -83.00825 | 41077 ft | 549 kts | 97° |
| 2026-05-05 16:51 | 27.15032 | -82.92454 | 41077 ft | 548 kts | 97° |
| 2026-05-05 16:52 | 27.13119 | -82.84175 | 41094 ft | 552 kts | 110° |
| 2026-05-05 16:52 | 27.09370 | -82.76655 | 41085 ft | 558 kts | 120° |
| 2026-05-05 16:53 | 27.06054 | -82.70668 | 41062 ft | 560 kts | 120° |
| 2026-05-05 16:53 | 27.01967 | -82.63211 | 41054 ft | 560 kts | 120° |
| 2026-05-05 16:54 | 26.97863 | -82.55769 | 41058 ft | 560 kts | 120° |
| 2026-05-05 16:54 | 26.93775 | -82.48355 | 41057 ft | 558 kts | 120° |
| 2026-05-05 16:55 | 26.91605 | -82.44818 | 41078 ft | 557 kts | 131° |
| 2026-05-05 16:55 | 26.88894 | -82.41729 | 41093 ft | 557 kts | 141° |
| 2026-05-05 16:55 | 26.82939 | -82.36027 | 40264 ft | 573 kts | 140° |
| 2026-05-05 16:56 | 26.79901 | -82.33126 | 39512 ft | 575 kts | 140° |
| 2026-05-05 16:56 | 26.76886 | -82.30225 | 38757 ft | 564 kts | 140° |
| 2026-05-05 16:56 | 26.73940 | -82.27393 | 37962 ft | 558 kts | 140° |
| 2026-05-05 16:56 | 26.70974 | -82.24561 | 37230 ft | 559 kts | 140° |
| 2026-05-05 16:57 | 26.68025 | -82.21749 | 36484 ft | 554 kts | 140° |
| 2026-05-05 16:57 | 26.65106 | -82.18957 | 35740 ft | 552 kts | 140° |
| 2026-05-05 16:57 | 26.62186 | -82.16163 | 35035 ft | 553 kts | 140° |
| 2026-05-05 16:57 | 26.59258 | -82.13370 | 34316 ft | 555 kts | 140° |
| 2026-05-05 16:58 | 26.56356 | -82.10605 | 33569 ft | 556 kts | 140° |
| 2026-05-05 16:58 | 26.53419 | -82.07806 | 32823 ft | 554 kts | 140° |
| 2026-05-05 16:58 | 26.50574 | -82.04907 | 32092 ft | 552 kts | 138° |
| 2026-05-05 16:58 | 26.47721 | -82.02052 | 31369 ft | 550 kts | 140° |
| 2026-05-05 16:59 | 26.44864 | -81.99230 | 30640 ft | 548 kts | 139° |
| 2026-05-05 16:59 | 26.42045 | -81.96391 | 29886 ft | 546 kts | 139° |
| 2026-05-05 16:59 | 26.39246 | -81.93541 | 29149 ft | 541 kts | 139° |
| 2026-05-05 16:59 | 26.36464 | -81.90739 | 28435 ft | 536 kts | 140° |
| 2026-05-05 17:00 | 26.33695 | -81.87978 | 27725 ft | 532 kts | 140° |
| 2026-05-05 17:00 | 26.30954 | -81.85235 | 27026 ft | 528 kts | 140° |
| 2026-05-05 17:00 | 26.28245 | -81.82505 | 26339 ft | 523 kts | 140° |
| 2026-05-05 17:00 | 26.25579 | -81.79767 | 25661 ft | 519 kts | 135° |
| 2026-05-05 17:01 | 26.23327 | -81.76641 | 24983 ft | 517 kts | 123° |
| 2026-05-05 17:01 | 26.21617 | -81.73142 | 24302 ft | 512 kts | 116° |
| 2026-05-05 17:01 | 26.20064 | -81.69586 | 23604 ft | 509 kts | 116° |
| 2026-05-05 17:01 | 26.18538 | -81.66045 | 22898 ft | 504 kts | 116° |
| 2026-05-05 17:02 | 26.17027 | -81.62555 | 22236 ft | 498 kts | 116° |
| 2026-05-05 17:02 | 26.15522 | -81.59113 | 21579 ft | 492 kts | 116° |
| 2026-05-05 17:02 | 26.14035 | -81.55712 | 20916 ft | 486 kts | 116° |
| 2026-05-05 17:02 | 26.12569 | -81.52345 | 20281 ft | 480 kts | 115° |
| 2026-05-05 17:03 | 26.11609 | -81.50139 | 19857 ft | 477 kts | 115° |
| 2026-05-05 17:03 | 26.10167 | -81.46836 | 19231 ft | 471 kts | 115° |
| 2026-05-05 17:03 | 26.08291 | -81.42550 | 18415 ft | 459 kts | 115° |
| 2026-05-05 17:03 | 26.06921 | -81.39418 | 17775 ft | 440 kts | 115° |
| 2026-05-05 17:04 | 26.06031 | -81.37377 | 17399 ft | 431 kts | 115° |
| 2026-05-05 17:04 | 26.04734 | -81.34391 | 16827 ft | 425 kts | 116° |
| 2026-05-05 17:04 | 26.03486 | -81.31520 | 16249 ft | 411 kts | 116° |
| 2026-05-05 17:04 | 26.02244 | -81.28674 | 15705 ft | 407 kts | 116° |
| 2026-05-05 17:05 | 26.01015 | -81.25860 | 15175 ft | 402 kts | 116° |
| 2026-05-05 17:05 | 25.99797 | -81.23070 | 14647 ft | 398 kts | 117° |
| 2026-05-05 17:05 | 25.98611 | -81.20352 | 14124 ft | 382 kts | 117° |
| 2026-05-05 17:05 | 25.97480 | -81.17763 | 13603 ft | 362 kts | 117° |
| 2026-05-05 17:06 | 25.96391 | -81.15279 | 13130 ft | 355 kts | 117° |
| 2026-05-05 17:06 | 25.95316 | -81.12825 | 12664 ft | 351 kts | 117° |
| 2026-05-05 17:06 | 25.94257 | -81.10406 | 12210 ft | 346 kts | 117° |
| 2026-05-05 17:06 | 25.93206 | -81.08006 | 11753 ft | 342 kts | 117° |
| 2026-05-05 17:07 | 25.92181 | -81.05670 | 11308 ft | 339 kts | 117° |
| 2026-05-05 17:07 | 25.91178 | -81.03317 | 10862 ft | 334 kts | 112° |
| 2026-05-05 17:07 | 25.90334 | -81.00932 | 10429 ft | 329 kts | 115° |
| 2026-05-05 17:07 | 25.89389 | -80.98636 | 9994 ft | 324 kts | 116° |
| 2026-05-05 17:08 | 25.88486 | -80.96376 | 9550 ft | 315 kts | 114° |
| 2026-05-05 17:08 | 25.87656 | -80.94167 | 9127 ft | 305 kts | 113° |
| 2026-05-05 17:08 | 25.86854 | -80.92040 | 8934 ft | 292 kts | 114° |
| 2026-05-05 17:08 | 25.86051 | -80.89958 | 8627 ft | 294 kts | 114° |
| 2026-05-05 17:09 | 25.85252 | -80.87891 | 8331 ft | 289 kts | 114° |
| 2026-05-05 17:09 | 25.84465 | -80.85845 | 8041 ft | 287 kts | 114° |
| 2026-05-05 17:09 | 25.83687 | -80.83818 | 7761 ft | 285 kts | 114° |
| 2026-05-05 17:09 | 25.82911 | -80.81800 | 7475 ft | 282 kts | 114° |
| 2026-05-05 17:10 | 25.82140 | -80.79798 | 7179 ft | 280 kts | 114° |
| 2026-05-05 17:10 | 25.81395 | -80.77862 | 6871 ft | 274 kts | 114° |
| 2026-05-05 17:10 | 25.80646 | -80.75928 | 6588 ft | 273 kts | 113° |
| 2026-05-05 17:10 | 25.79886 | -80.73965 | 6351 ft | 278 kts | 114° |
| 2026-05-05 17:11 | 25.79144 | -80.72019 | 6084 ft | 271 kts | 113° |
| 2026-05-05 17:11 | 25.78423 | -80.70146 | 5810 ft | 257 kts | 114° |
| 2026-05-05 17:11 | 25.77732 | -80.68372 | 5542 ft | 244 kts | 114° |
| 2026-05-05 17:11 | 25.77146 | -80.66637 | 5261 ft | 236 kts | 101° |
| 2026-05-05 17:12 | 25.77204 | -80.64866 | 5023 ft | 226 kts | 83° |
| 2026-05-05 17:12 | 25.77314 | -80.63162 | 4804 ft | 217 kts | 87° |
| 2026-05-05 17:12 | 25.77375 | -80.61510 | 4589 ft | 210 kts | 88° |
| 2026-05-05 17:12 | 25.77436 | -80.59922 | 4379 ft | 202 kts | 87° |
| 2026-05-05 17:13 | 25.77499 | -80.58400 | 4179 ft | 193 kts | 86° |
| 2026-05-05 17:13 | 25.77558 | -80.56946 | 3980 ft | 184 kts | 86° |
| 2026-05-05 17:13 | 25.77613 | -80.55591 | 3935 ft | 171 kts | 86° |
| 2026-05-05 17:13 | 25.77667 | -80.54289 | 3888 ft | 170 kts | 86° |
| 2026-05-05 17:14 | 25.77722 | -80.52933 | 3712 ft | 177 kts | 85° |
| 2026-05-05 17:14 | 25.77777 | -80.51603 | 3498 ft | 171 kts | 85° |
| 2026-05-05 17:14 | 25.77831 | -80.50298 | 3291 ft | 168 kts | 85° |
| 2026-05-05 17:14 | 25.77883 | -80.49012 | 3067 ft | 166 kts | 85° |
| 2026-05-05 17:15 | 25.77937 | -80.47726 | 2842 ft | 167 kts | 85° |
| 2026-05-05 17:15 | 25.77989 | -80.46441 | 2643 ft | 165 kts | 85° |
| 2026-05-05 17:15 | 25.78040 | -80.45190 | 2425 ft | 161 kts | 85° |
| 2026-05-05 17:15 | 25.78094 | -80.43924 | 2224 ft | 166 kts | 85° |
| 2026-05-05 17:16 | 25.78145 | -80.42657 | 1998 ft | 162 kts | 85° |
| 2026-05-05 17:16 | 25.78197 | -80.41411 | 1791 ft | 161 kts | 85° |
| 2026-05-05 17:16 | 25.78248 | -80.40174 | 1586 ft | 160 kts | 85° |
| 2026-05-05 17:16 | 25.78298 | -80.38947 | 1370 ft | 159 kts | 85° |
| 2026-05-05 17:17 | 25.78349 | -80.37711 | 1164 ft | 162 kts | 85° |
| 2026-05-05 17:17 | 25.78402 | -80.36460 | 962 ft | 162 kts | 85° |
| 2026-05-05 17:17 | 25.78455 | -80.35222 | 760 ft | 159 kts | 85° |
| 2026-05-05 17:17 | 25.78501 | -80.34018 | 616 ft | 154 kts | 87° |
| 2026-05-05 17:18 | 25.78541 | -80.32837 | 468 ft | 154 kts | 88° |
| 2026-05-05 17:18 | 25.78603 | -80.31646 | 172 ft | 153 kts | 87° |
| 2026-05-05 17:18 | 25.78651 | -80.30525 | 23 ft | 132 kts | 89° |
| 2026-05-05 17:18 | 25.78685 | -80.29673 | 21 ft | 102 kts | 87° |
| 2026-05-05 17:19 | 25.78712 | -80.28982 | 22 ft | 62 kts | 88° |
| 2026-05-05 17:19 | 25.78796 | -80.28701 | 20 ft | 18 kts | 41° |
| 2026-05-05 17:19 | 25.78890 | -80.28614 | 20 ft | 17 kts | 36° |
| 2026-05-05 17:19 | 25.78948 | -80.28568 | 20 ft | 0 kts | 35° |
| 2026-05-05 17:20 | 25.78956 | -80.28563 | 20 ft | 3 kts | 35° |
| 2026-05-05 17:20 | 25.78988 | -80.28537 | 20 ft | 8 kts | 35° |
| 2026-05-05 17:20 | 25.79048 | -80.28491 | 20 ft | 13 kts | 34° |
| 2026-05-05 17:20 | 25.79129 | -80.28436 | 20 ft | 15 kts | 31° |
| 2026-05-05 17:21 | 25.79227 | -80.28385 | 20 ft | 16 kts | 34° |
| 2026-05-05 17:21 | 25.79276 | -80.28337 | 20 ft | 6 kts | 43° |
| 2026-05-05 17:21 | 25.79317 | -80.28294 | 20 ft | 10 kts | 43° |
| 2026-05-05 17:22 | 25.79426 | -80.28279 | 20 ft | 1 kts | 311° |
| 2026-05-05 17:22 | 25.79431 | -80.28289 | 20 ft | 2 kts | 297° |
| 2026-05-05 17:22 | 25.79430 | -80.28298 | 20 ft | 1 kts | 258° |
| 2026-05-05 17:22 | 25.79422 | -80.28306 | 20 ft | 3 kts | 219° |
| 2026-05-05 17:23 | 25.79394 | -80.28299 | 20 ft | 8 kts | 146° |
| 2026-05-05 17:23 | 25.79328 | -80.28245 | 20 ft | 13 kts | 143° |
| 2026-05-05 17:23 | 25.79278 | -80.28212 | 20 ft | 5 kts | 153° |
| 2026-05-05 17:23 | 25.79273 | -80.28209 | 20 ft | 1 kts | 153° |
| 2026-05-05 17:24 | 25.79271 | -80.28208 | 20 ft | 0 kts | 153° |